Time;durP1;ratioP1;P1;durP2;ratioP2;P2;SDS_P1;SDS_P2;PMS_P1;PMS_P2;Temp;Humidity;BMP_temperature;BMP_pressure;BME280_temperature;BME280_humidity;BME280_pressure;Samples;Min_cycle;Max_cycle;Signal;HPM_P1;HPM_P2
2022/10/06 00:01:09;;;;;;;5.57;3.50;;;15.00;99.90;;;;;;6231428;23;20813;-83
2022/10/06 00:03:37;;;;;;;3.93;3.67;;;14.90;99.90;;;;;;6231516;23;20401;-84
2022/10/06 00:06:05;;;;;;;3.00;2.50;;;14.90;99.90;;;;;;6231319;23;20419;-84
2022/10/06 00:08:33;;;;;;;3.30;2.83;;;14.90;99.90;;;;;;6231331;23;20406;-84
2022/10/06 00:11:00;;;;;;;2.80;2.60;;;14.80;99.90;;;;;;6231507;23;21039;-84
2022/10/06 00:13:29;;;;;;;4.53;4.13;;;14.90;99.90;;;;;;6231243;23;20414;-84
2022/10/06 00:15:56;;;;;;;4.27;2.60;;;15.00;99.90;;;;;;6231457;23;20437;-84
2022/10/06 00:18:23;;;;;;;3.70;3.40;;;15.00;99.90;;;;;;6230780;23;20416;-84
2022/10/06 00:20:54;;;;;;;3.70;3.40;;;15.10;99.90;;;;;;6231940;23;20428;-84
2022/10/06 00:23:21;;;;;;;3.33;3.10;;;15.10;99.90;;;;;;6231284;23;20387;-84
2022/10/06 00:25:48;;;;;;;3.43;2.90;;;15.00;99.90;;;;;;6233405;23;20411;-83
2022/10/06 00:28:15;;;;;;;3.10;2.90;;;15.00;99.90;;;;;;6235069;23;20416;-84
2022/10/06 00:30:43;;;;;;;3.33;3.13;;;15.10;99.90;;;;;;6231867;23;20506;-84
2022/10/06 00:33:12;;;;;;;6.77;3.40;;;15.10;99.90;;;;;;6232358;23;20416;-82
2022/10/06 00:35:39;;;;;;;3.20;3.00;;;15.10;99.90;;;;;;6231505;23;20424;-82
2022/10/06 00:38:06;;;;;;;4.10;3.00;;;15.00;99.90;;;;;;6231589;23;20422;-82
2022/10/06 00:40:33;;;;;;;4.07;3.63;;;15.00;99.90;;;;;;6231304;23;20498;-82
2022/10/06 00:43:02;;;;;;;7.73;6.60;;;14.90;99.90;;;;;;6231692;23;20416;-82
2022/10/06 00:45:34;;;;;;;3.10;2.90;;;14.90;99.90;;;;;;6232221;23;20430;-82
2022/10/06 00:48:07;;;;;;;3.47;3.27;;;14.90;99.90;;;;;;6230960;23;20458;-82
2022/10/06 00:50:36;;;;;;;4.40;3.80;;;14.90;99.90;;;;;;6232267;23;20513;-82
2022/10/06 00:53:03;;;;;;;3.80;3.50;;;14.90;99.90;;;;;;6231172;23;20401;-82
2022/10/06 00:55:30;;;;;;;5.03;3.40;;;14.80;99.90;;;;;;6230978;23;20788;-82
2022/10/06 00:57:58;;;;;;;4.70;2.87;;;14.80;99.90;;;;;;6231387;23;20440;-82
2022/10/06 01:00:26;;;;;;;3.20;3.00;;;14.80;99.90;;;;;;6232267;23;20423;-82
2022/10/06 01:02:56;;;;;;;4.30;3.90;;;14.70;99.90;;;;;;6232615;23;20417;-82
2022/10/06 01:05:28;;;;;;;4.33;3.30;;;14.70;99.90;;;;;;6231647;23;20394;-82
2022/10/06 01:07:56;;;;;;;5.50;3.57;;;14.70;99.90;;;;;;6231644;23;20396;-82
2022/10/06 01:10:23;;;;;;;5.33;3.57;;;14.60;99.90;;;;;;6231560;23;20536;-82
2022/10/06 01:12:50;;;;;;;3.10;2.90;;;14.50;99.90;;;;;;6231411;23;20410;-82
2022/10/06 01:15:18;;;;;;;4.80;3.53;;;14.40;99.90;;;;;;6231592;23;20409;-82
2022/10/06 01:17:51;;;;;;;2.87;2.67;;;14.50;99.90;;;;;;6231206;23;20413;-82
2022/10/06 01:20:19;;;;;;;3.63;3.33;;;14.60;99.90;;;;;;6231955;23;20520;-82
2022/10/06 01:22:50;;;;;;;4.07;3.67;;;14.50;99.90;;;;;;6237760;23;20482;-82
2022/10/06 01:25:18;;;;;;;4.83;2.87;;;14.50;99.90;;;;;;6231681;23;20402;-82
2022/10/06 01:27:52;;;;;;;4.10;3.80;;;14.40;99.90;;;;;;6231457;23;20473;-82
2022/10/06 01:30:24;;;;;;;3.37;3.17;;;14.40;99.90;;;;;;6232148;23;20459;-82
2022/10/06 01:32:51;;;;;;;3.60;3.30;;;14.40;99.90;;;;;;6234876;23;20390;-82
2022/10/06 01:35:18;;;;;;;3.40;3.20;;;14.40;99.90;;;;;;6234013;23;20482;-82
2022/10/06 01:37:46;;;;;;;3.97;3.67;;;14.50;99.90;;;;;;6234448;23;20417;-82
2022/10/06 01:40:14;;;;;;;3.33;3.00;;;14.40;99.90;;;;;;6233221;23;20439;-82
2022/10/06 01:42:40;;;;;;;3.30;3.07;;;14.50;99.90;;;;;;6233859;23;20477;-82
2022/10/06 01:45:08;;;;;;;3.97;3.77;;;14.50;99.90;;;;;;6234176;23;20472;-82
2022/10/06 01:47:35;;;;;;;4.90;4.20;;;14.50;99.90;;;;;;6232976;23;20971;-82
2022/10/06 01:50:03;;;;;;;5.37;4.90;;;14.60;99.90;;;;;;6232235;23;20456;-82
2022/10/06 01:52:30;;;;;;;3.37;3.07;;;14.60;99.90;;;;;;6233220;23;20417;-81
2022/10/06 01:54:58;;;;;;;4.57;3.80;;;14.60;99.90;;;;;;6233797;23;20502;-82
2022/10/06 01:57:24;;;;;;;4.97;3.87;;;14.60;99.90;;;;;;6233056;23;20490;-82
2022/10/06 01:59:51;;;;;;;5.37;3.40;;;14.50;99.90;;;;;;6233164;23;20446;-82
2022/10/06 02:02:18;;;;;;;4.03;3.70;;;14.50;99.90;;;;;;6234440;23;20406;-82
2022/10/06 02:04:45;;;;;;;2.90;2.70;;;14.50;99.90;;;;;;6233370;23;20971;-82
2022/10/06 02:07:11;;;;;;;5.40;3.00;;;14.50;99.90;;;;;;6233377;23;20405;-82
2022/10/06 02:09:38;;;;;;;3.40;2.70;;;14.50;99.90;;;;;;6232358;23;20411;-82
2022/10/06 02:12:06;;;;;;;3.03;2.83;;;14.40;99.90;;;;;;6233855;23;20412;-84
2022/10/06 02:14:33;;;;;;;3.90;3.60;;;14.40;99.90;;;;;;6233758;23;20493;-84
2022/10/06 02:17:00;;;;;;;3.40;3.10;;;14.40;99.90;;;;;;6236114;23;20404;-83
2022/10/06 02:19:27;;;;;;;3.50;3.27;;;14.30;99.90;;;;;;6227786;23;20413;-85
2022/10/06 02:21:54;;;;;;;5.07;3.30;;;14.20;99.90;;;;;;6224093;23;20413;-85
2022/10/06 02:24:20;;;;;;;3.80;3.47;;;14.20;99.90;;;;;;6224140;23;20409;-86
2022/10/06 02:26:47;;;;;;;3.57;3.27;;;14.30;99.90;;;;;;6224429;23;20498;-85
2022/10/06 02:29:15;;;;;;;4.00;3.40;;;14.20;99.90;;;;;;6224392;23;20416;-85
2022/10/06 02:31:42;;;;;;;4.20;3.07;;;14.30;99.90;;;;;;6224215;23;20459;-86
2022/10/06 02:34:09;;;;;;;2.47;2.27;;;14.30;99.90;;;;;;6224286;23;20409;-85
2022/10/06 02:36:35;;;;;;;4.63;3.20;;;14.30;99.90;;;;;;6223630;23;20501;-86
2022/10/06 02:39:02;;;;;;;3.30;3.00;;;14.30;99.90;;;;;;6224607;23;20412;-86
2022/10/06 02:41:29;;;;;;;4.27;3.63;;;14.30;99.90;;;;;;6223685;23;20443;-86
2022/10/06 02:43:56;;;;;;;3.33;3.10;;;14.30;99.90;;;;;;6223947;23;20721;-85
2022/10/06 02:46:25;;;;;;;4.83;3.47;;;14.30;99.90;;;;;;6224845;23;20416;-86
2022/10/06 02:48:52;;;;;;;4.70;3.43;;;14.30;99.90;;;;;;6223959;23;20496;-86
2022/10/06 02:51:20;;;;;;;4.03;3.33;;;14.20;99.90;;;;;;6224460;23;20488;-86
2022/10/06 02:53:48;;;;;;;2.50;2.33;;;14.30;99.90;;;;;;6224201;23;20414;-85
2022/10/06 02:56:17;;;;;;;3.90;3.60;;;14.20;99.90;;;;;;6224677;23;20961;-85
2022/10/06 02:58:46;;;;;;;3.80;3.50;;;14.20;99.90;;;;;;6223903;23;20409;-86
2022/10/06 03:01:16;;;;;;;4.10;3.20;;;14.20;99.90;;;;;;6224840;23;20421;-86
2022/10/06 03:03:45;;;;;;;2.80;2.60;;;14.10;99.90;;;;;;6224968;23;20409;-86
2022/10/06 03:06:21;;;;;;;4.27;3.47;;;14.10;99.90;;;;;;6222885;23;20406;-86
2022/10/06 03:08:49;;;;;;;3.97;3.67;;;14.00;99.90;;;;;;6223581;23;20406;-86
2022/10/06 03:11:18;;;;;;;5.77;3.10;;;14.00;99.90;;;;;;6223993;23;20507;-85
2022/10/06 03:13:44;;;;;;;4.10;3.70;;;13.90;99.90;;;;;;6234274;23;20893;-86
2022/10/06 03:16:16;;;;;;;3.90;3.50;;;13.80;99.90;;;;;;6224034;23;20900;-86
2022/10/06 03:18:45;;;;;;;3.60;3.40;;;13.90;99.90;;;;;;6223079;23;20413;-85
2022/10/06 03:21:13;;;;;;;3.80;3.40;;;13.80;99.90;;;;;;6224774;23;20991;-85
2022/10/06 03:23:40;;;;;;;4.40;4.00;;;13.90;99.90;;;;;;6224222;23;20425;-86
2022/10/06 03:26:07;;;;;;;4.27;3.97;;;13.80;99.90;;;;;;6223774;23;20404;-86
2022/10/06 03:28:34;;;;;;;3.83;3.53;;;13.80;99.90;;;;;;6223463;23;20492;-86
2022/10/06 03:31:02;;;;;;;3.87;3.57;;;13.80;99.90;;;;;;6223596;23;21011;-86
2022/10/06 03:33:30;;;;;;;4.37;3.97;;;13.80;99.90;;;;;;6223766;23;20436;-86
2022/10/06 03:36:03;;;;;;;3.20;3.00;;;13.70;99.90;;;;;;6224772;23;20445;-86
2022/10/06 03:38:31;;;;;;;4.50;4.13;;;13.80;99.90;;;;;;6223627;23;20500;-85
2022/10/06 03:41:05;;;;;;;4.40;3.67;;;13.80;99.90;;;;;;6223397;23;20792;-85
2022/10/06 03:43:32;;;;;;;3.40;3.10;;;13.80;99.90;;;;;;6223778;23;20501;-86
2022/10/06 03:46:00;;;;;;;4.10;3.80;;;13.80;99.90;;;;;;6223631;23;20414;-86
2022/10/06 03:48:27;;;;;;;3.47;3.20;;;13.90;99.90;;;;;;6223346;23;20409;-85
2022/10/06 03:50:55;;;;;;;3.50;3.20;;;13.90;99.90;;;;;;6223241;23;20448;-86
2022/10/06 03:53:26;;;;;;;8.00;3.20;;;14.00;99.90;;;;;;6223768;23;20440;-85
2022/10/06 03:56:00;;;;;;;3.60;3.03;;;14.00;99.90;;;;;;6224231;23;20401;-85
2022/10/06 03:58:26;;;;;;;2.80;2.60;;;14.10;99.90;;;;;;6223346;23;20398;-85
2022/10/06 04:00:59;;;;;;;5.07;3.03;;;14.20;99.90;;;;;;6224349;23;20426;-84
2022/10/06 04:03:26;;;;;;;5.40;3.70;;;14.10;99.90;;;;;;6223583;23;20399;-85
2022/10/06 04:05:54;;;;;;;3.40;3.10;;;14.10;99.90;;;;;;6222806;23;20473;-85
2022/10/06 04:08:23;;;;;;;4.77;3.20;;;14.10;99.90;;;;;;6233986;23;20425;-85
2022/10/06 04:10:49;;;;;;;4.00;3.67;;;13.90;99.90;;;;;;6223631;23;20460;-85
2022/10/06 04:13:17;;;;;;;2.93;2.70;;;13.90;99.90;;;;;;6223504;23;20432;-86
2022/10/06 04:15:44;;;;;;;3.47;3.20;;;14.00;99.90;;;;;;6223593;23;20419;-85
2022/10/06 04:18:12;;;;;;;3.40;3.10;;;14.00;99.90;;;;;;6223503;23;20405;-86
2022/10/06 04:20:39;;;;;;;3.87;3.47;;;14.00;99.90;;;;;;6223146;23;20425;-86
2022/10/06 04:23:06;;;;;;;3.83;3.50;;;14.10;99.90;;;;;;6224115;23;20445;-86
2022/10/06 04:25:34;;;;;;;2.57;2.43;;;14.20;99.90;;;;;;6222958;23;20499;-86
2022/10/06 04:28:01;;;;;;;4.00;3.70;;;14.30;99.90;;;;;;6223387;23;20409;-86
2022/10/06 04:30:29;;;;;;;5.27;3.30;;;14.30;99.90;;;;;;6224026;23;20453;-86
2022/10/06 04:32:55;;;;;;;3.90;3.50;;;14.40;99.90;;;;;;6224109;23;20452;-85
2022/10/06 04:35:22;;;;;;;4.03;3.70;;;14.40;99.90;;;;;;6223889;23;20437;-85
2022/10/06 04:37:50;;;;;;;3.83;3.50;;;14.30;99.90;;;;;;6223676;23;20409;-86
2022/10/06 04:40:18;;;;;;;4.27;3.90;;;14.30;99.90;;;;;;6223018;23;20766;-85
2022/10/06 04:42:46;;;;;;;3.80;3.50;;;14.30;99.90;;;;;;6223966;23;20409;-86
2022/10/06 04:45:12;;;;;;;3.77;3.47;;;14.20;99.90;;;;;;6223045;23;20411;-86
2022/10/06 04:47:39;;;;;;;7.73;3.50;;;14.20;99.90;;;;;;6223285;23;20405;-86
2022/10/06 04:50:06;;;;;;;4.50;4.10;;;14.10;99.90;;;;;;6222876;23;20787;-86
2022/10/06 04:52:33;;;;;;;3.83;3.53;;;14.00;99.90;;;;;;6223590;23;21027;-85
2022/10/06 04:55:00;;;;;;;4.70;4.30;;;14.00;99.90;;;;;;6224138;23;20475;-86
2022/10/06 04:57:27;;;;;;;7.47;4.83;;;13.90;99.90;;;;;;6224304;23;20413;-86
2022/10/06 05:02:40;;;;;;;4.43;3.90;;;13.90;99.90;;;;;;6234380;23;20380;-86
2022/10/06 05:05:07;;;;;;;5.60;5.10;;;13.80;99.90;;;;;;6225431;23;20471;-85
2022/10/06 05:07:34;;;;;;;3.97;3.57;;;13.80;99.90;;;;;;6225629;23;20406;-86
2022/10/06 05:10:01;;;;;;;4.27;3.90;;;13.80;99.90;;;;;;6225318;23;20445;-85
2022/10/06 05:12:29;;;;;;;7.80;4.90;;;13.80;99.90;;;;;;6224732;23;20448;-85
2022/10/06 05:14:58;;;;;;;6.03;3.97;;;13.80;99.90;;;;;;6225295;23;20515;-86
2022/10/06 05:17:25;;;;;;;8.30;4.47;;;13.80;99.90;;;;;;6225391;23;20403;-86
2022/10/06 05:19:52;;;;;;;7.43;4.67;;;13.70;99.90;;;;;;6224685;23;20428;-86
2022/10/06 05:22:18;;;;;;;4.70;4.37;;;13.70;99.90;;;;;;6225871;23;20472;-85
2022/10/06 05:24:46;;;;;;;4.87;4.37;;;13.70;99.90;;;;;;6225958;23;20487;-86
2022/10/06 05:27:13;;;;;;;3.90;3.57;;;13.80;99.90;;;;;;6225299;23;20524;-85
2022/10/06 05:29:39;;;;;;;5.03;3.70;;;13.90;99.90;;;;;;6224750;23;20492;-85
2022/10/06 05:32:07;;;;;;;4.73;3.70;;;14.00;99.90;;;;;;6225462;23;20778;-85
2022/10/06 05:34:34;;;;;;;4.40;3.83;;;14.10;99.90;;;;;;6225340;23;20401;-85
2022/10/06 05:37:01;;;;;;;3.87;3.60;;;14.20;99.90;;;;;;6224917;23;20473;-85
2022/10/06 05:39:28;;;;;;;3.80;3.50;;;14.30;99.90;;;;;;6224873;23;20427;-85
2022/10/06 05:41:54;;;;;;;3.57;3.37;;;14.40;99.90;;;;;;6225240;23;20395;-85
2022/10/06 05:44:21;;;;;;;4.77;3.60;;;14.40;99.90;;;;;;6223645;23;20421;-85
2022/10/06 05:46:48;;;;;;;4.20;3.80;;;14.40;99.90;;;;;;6224852;23;20799;-85
2022/10/06 05:49:16;;;;;;;3.70;3.33;;;14.50;99.90;;;;;;6224468;23;20439;-86
2022/10/06 05:51:43;;;;;;;5.27;4.10;;;14.50;99.90;;;;;;6224864;23;20444;-85
2022/10/06 05:54:09;;;;;;;3.93;3.53;;;14.60;99.90;;;;;;6224789;23;20419;-85
2022/10/06 05:56:37;;;;;;;4.50;4.10;;;14.70;99.90;;;;;;6228949;23;20419;-84
2022/10/06 05:59:05;;;;;;;4.17;3.87;;;14.70;99.90;;;;;;6230161;23;20476;-85
2022/10/06 06:01:34;;;;;;;3.47;3.17;;;14.80;99.90;;;;;;6224147;23;20436;-86
2022/10/06 06:04:03;;;;;;;4.93;4.63;;;14.80;99.90;;;;;;6224292;23;20402;-85
2022/10/06 06:06:34;;;;;;;5.47;4.70;;;14.90;99.90;;;;;;6224535;23;20409;-85
2022/10/06 06:09:05;;;;;;;4.50;4.10;;;15.00;99.90;;;;;;6224440;23;20399;-85
2022/10/06 06:11:32;;;;;;;4.00;3.60;;;15.00;99.90;;;;;;6224756;23;20448;-85
2022/10/06 06:14:00;;;;;;;4.37;3.67;;;15.00;99.90;;;;;;6223886;23;20415;-85
2022/10/06 06:16:27;;;;;;;6.50;4.80;;;15.10;99.90;;;;;;6223198;23;20405;-86
2022/10/06 06:18:54;;;;;;;4.33;4.03;;;15.10;99.90;;;;;;6223257;23;20409;-85
2022/10/06 06:21:21;;;;;;;5.67;3.87;;;15.20;99.90;;;;;;6223871;23;20439;-85
2022/10/06 06:23:49;;;;;;;4.90;4.00;;;15.30;99.90;;;;;;6224185;23;20470;-85
2022/10/06 06:26:19;;;;;;;3.97;3.67;;;15.40;99.90;;;;;;6224215;23;20884;-85
2022/10/06 06:28:47;;;;;;;9.70;7.93;;;15.40;99.90;;;;;;6223777;23;20417;-84
2022/10/06 06:31:16;;;;;;;4.53;3.93;;;15.50;99.90;;;;;;6223770;23;20448;-85
2022/10/06 06:33:43;;;;;;;5.20;3.40;;;15.50;99.90;;;;;;6226177;23;20421;-85
2022/10/06 06:36:15;;;;;;;4.17;3.53;;;15.60;99.90;;;;;;6223831;23;20409;-85
2022/10/06 06:38:42;;;;;;;3.83;3.60;;;15.60;99.90;;;;;;6223602;23;20411;-86
2022/10/06 06:41:18;;;;;;;4.23;3.90;;;15.50;99.90;;;;;;6223381;23;20980;-85
2022/10/06 06:43:46;;;;;;;5.47;4.10;;;15.60;99.90;;;;;;6223770;23;20405;-85
2022/10/06 06:46:14;;;;;;;4.77;4.13;;;15.60;99.90;;;;;;6224068;23;20498;-84
2022/10/06 06:48:41;;;;;;;3.90;3.60;;;15.70;99.90;;;;;;6223946;23;21059;-85
2022/10/06 06:51:09;;;;;;;5.47;4.13;;;15.80;99.90;;;;;;6223658;23;20429;-85
2022/10/06 06:53:37;;;;;;;4.90;3.63;;;15.90;99.90;;;;;;6235315;23;20492;-85
2022/10/06 06:56:04;;;;;;;9.00;4.20;;;16.00;99.90;;;;;;6223495;23;20402;-85
2022/10/06 06:58:32;;;;;;;6.10;5.10;;;16.00;99.90;;;;;;6223448;23;20397;-85
2022/10/06 07:01:05;;;;;;;4.43;4.03;;;16.00;99.90;;;;;;6224763;23;20439;-85
2022/10/06 07:03:32;;;;;;;4.97;4.57;;;16.00;99.90;;;;;;6224282;23;20733;-85
2022/10/06 07:06:07;;;;;;;4.20;3.90;;;15.90;99.90;;;;;;6223820;23;20405;-85
2022/10/06 07:08:35;;;;;;;5.13;4.73;;;15.70;99.90;;;;;;6223978;23;20453;-86
2022/10/06 07:11:11;;;;;;;4.33;4.03;;;15.60;99.90;;;;;;6223478;23;20429;-85
2022/10/06 07:13:41;;;;;;;4.90;3.90;;;15.50;99.90;;;;;;6223732;23;20422;-85
2022/10/06 07:27:07;;;;;;;3.37;3.07;;;15.60;99.90;;;;;;6224168;23;20398;-85
2022/10/06 07:29:35;;;;;;;6.70;3.50;;;15.80;99.90;;;;;;6225947;23;20419;-85
2022/10/06 07:32:01;;;;;;;4.20;2.30;;;15.80;99.90;;;;;;6224040;23;20447;-84
2022/10/06 07:34:29;;;;;;;2.20;2.10;;;15.80;99.90;;;;;;6223428;23;20411;-85
2022/10/06 07:36:56;;;;;;;2.80;2.07;;;15.90;99.90;;;;;;6223633;23;20421;-85
2022/10/06 07:39:22;;;;;;;6.40;2.77;;;15.80;99.90;;;;;;6225803;23;20415;-85
2022/10/06 07:41:49;;;;;;;2.30;2.10;;;15.90;99.90;;;;;;6243066;23;20477;-85
2022/10/06 07:44:16;;;;;;;4.23;3.30;;;16.00;99.90;;;;;;6242855;23;20438;-85
2022/10/06 07:46:44;;;;;;;3.40;2.37;;;16.00;99.90;;;;;;6227107;23;20896;-85
2022/10/06 07:49:12;;;;;;;4.10;2.63;;;16.00;99.90;;;;;;6239012;23;20409;-86
2022/10/06 07:51:38;;;;;;;2.33;1.80;;;16.00;99.90;;;;;;6225386;23;20521;-85
2022/10/06 07:54:07;;;;;;;2.97;2.37;;;16.00;99.90;;;;;;6223997;23;20408;-85
2022/10/06 07:56:33;;;;;;;2.33;2.13;;;16.00;99.90;;;;;;6223719;23;20417;-85
2022/10/06 07:59:01;;;;;;;3.13;1.60;;;16.00;99.90;;;;;;6223146;23;20427;-85
2022/10/06 08:01:29;;;;;;;2.43;2.23;;;16.10;99.90;;;;;;6222748;23;20477;-85
2022/10/06 08:03:57;;;;;;;1.63;1.40;;;16.20;99.90;;;;;;6223245;23;20790;-86
2022/10/06 08:06:24;;;;;;;2.27;2.17;;;16.20;99.90;;;;;;6223938;23;20476;-86
2022/10/06 08:08:52;;;;;;;2.40;1.60;;;16.30;99.90;;;;;;6223782;23;20410;-86
2022/10/06 08:11:21;;;;;;;2.80;2.50;;;16.30;99.90;;;;;;6219432;23;20429;-86
2022/10/06 08:13:49;;;;;;;2.73;2.50;;;16.40;99.90;;;;;;6222319;23;20409;-81
2022/10/06 08:16:18;;;;;;;2.40;2.27;;;16.40;99.90;;;;;;6223047;23;20415;-82
2022/10/06 08:18:49;;;;;;;2.43;2.07;;;16.40;99.90;;;;;;6214460;22;20466;-82
2022/10/06 08:21:19;;;;;;;2.87;1.73;;;16.40;99.90;;;;;;6194024;23;20400;-84
2022/10/06 08:23:47;;;;;;;2.33;1.70;;;16.50;99.90;;;;;;6195769;23;20473;-85
2022/10/06 08:26:16;;;;;;;1.73;1.50;;;16.60;99.90;;;;;;6195465;23;20732;-85
2022/10/06 08:28:45;;;;;;;2.20;1.57;;;16.60;99.90;;;;;;6195643;23;20758;-85
2022/10/06 08:31:12;;;;;;;1.70;1.60;;;16.60;99.90;;;;;;6195697;23;20409;-85
2022/10/06 08:33:50;;;;;;;1.93;1.73;;;16.70;99.90;;;;;;6194611;23;20452;-85
2022/10/06 08:36:20;;;;;;;2.20;1.50;;;16.80;99.90;;;;;;6212536;23;20407;-85
2022/10/06 08:38:49;;;;;;;4.47;2.37;;;16.80;99.90;;;;;;6208651;23;20433;-85
2022/10/06 08:41:20;;;;;;;2.70;1.53;;;16.80;99.90;;;;;;6197520;23;20408;-85
2022/10/06 08:44:00;;;;;;;1.40;1.30;;;17.00;99.90;;;;;;6195500;23;20758;-85
2022/10/06 08:46:34;;;;;;;3.20;1.70;;;17.10;99.90;;;;;;6196755;23;20452;-85
2022/10/06 08:49:01;;;;;;;1.50;1.40;;;17.10;99.90;;;;;;6194852;23;20517;-85
2022/10/06 08:51:50;;;;;;;1.40;0.80;;;17.30;99.90;;;;;;6198899;23;20440;-85
2022/10/06 08:54:28;;;;;;;1.50;1.40;;;17.20;99.90;;;;;;6193852;23;20393;-85
2022/10/06 08:57:02;;;;;;;2.30;1.30;;;17.20;99.90;;;;;;6191858;23;20401;-86
2022/10/06 08:59:35;;;;;;;1.20;1.10;;;17.10;99.90;;;;;;6189030;23;20429;-86
2022/10/06 09:02:21;;;;;;;2.00;1.10;;;17.10;99.90;;;;;;6188431;23;20420;-86
2022/10/06 09:04:49;;;;;;;4.27;1.60;;;17.10;99.90;;;;;;6191200;23;20785;-86
2022/10/06 09:07:25;;;;;;;1.10;1.00;;;17.20;99.90;;;;;;6189557;23;20973;-85
2022/10/06 09:10:04;;;;;;;1.63;1.20;;;17.30;99.90;;;;;;6195439;23;20429;-86
2022/10/06 09:12:38;;;;;;;4.43;1.97;;;17.40;99.90;;;;;;6195367;23;20443;-85
2022/10/06 09:15:18;;;;;;;1.53;0.90;;;17.60;99.90;;;;;;6195725;23;20964;-86
2022/10/06 09:17:53;;;;;;;4.97;1.30;;;17.70;99.90;;;;;;6197749;23;20393;-86
2022/10/06 09:23:46;;;;;;;2.27;1.43;;;18.00;99.90;;;;;;6220767;23;20408;-85
2022/10/06 09:26:06;;;;;;;2.77;1.43;;;18.10;99.80;;;;;;6226278;23;20409;-85
2022/10/06 09:28:33;;;;;;;2.90;1.20;;;18.30;99.80;;;;;;6222767;23;20439;-85
2022/10/06 09:31:02;;;;;;;1.50;1.30;;;18.30;99.10;;;;;;6227298;23;20407;-85
2022/10/06 09:33:37;;;;;;;2.40;1.30;;;18.50;98.30;;;;;;6226951;23;20451;-85
2022/10/06 09:36:08;;;;;;;4.33;2.87;;;18.30;98.80;;;;;;6224050;23;20389;-85
2022/10/06 09:38:51;;;;;;;3.43;1.60;;;18.10;98.70;;;;;;6221422;23;20915;-85
2022/10/06 09:41:18;;;;;;;2.10;1.23;;;17.90;99.30;;;;;;6222518;23;20489;-84
2022/10/06 09:43:54;;;;;;;1.60;1.20;;;17.90;99.20;;;;;;6223542;23;20510;-84
2022/10/06 09:46:28;;;;;;;1.30;1.20;;;18.00;99.30;;;;;;6221601;23;20431;-84
2022/10/06 09:49:17;;;;;;;2.80;1.50;;;18.10;99.60;;;;;;6223814;23;20442;-84
2022/10/06 09:52:13;;;;;;;1.40;1.30;;;18.00;99.70;;;;;;6225611;23;20422;-84
2022/10/06 09:54:43;;;;;;;1.73;1.40;;;18.20;99.80;;;;;;6200481;23;20416;-84
2022/10/06 09:57:20;;;;;;;2.90;1.30;;;18.50;99.80;;;;;;6226007;23;20443;-85
2022/10/06 09:59:48;;;;;;;2.80;2.07;;;18.60;99.60;;;;;;6225423;23;20751;-85
2022/10/06 10:02:26;;;;;;;3.43;1.77;;;18.80;99.30;;;;;;6226862;23;20407;-85
2022/10/06 10:04:55;;;;;;;2.57;1.10;;;18.90;99.40;;;;;;6225817;23;20389;-85
2022/10/06 10:07:24;;;;;;;1.30;1.20;;;18.90;98.40;;;;;;6226891;23;20412;-86
2022/10/06 10:09:54;;;;;;;1.63;1.40;;;19.00;98.40;;;;;;6212230;23;20465;-86
2022/10/06 10:12:26;;;;;;;1.50;1.20;;;19.00;98.30;;;;;;6226004;23;20630;-85
2022/10/06 10:14:55;;;;;;;2.87;1.33;;;18.80;98.20;;;;;;6225692;23;20536;-85
2022/10/06 10:17:32;;;;;;;2.23;1.30;;;18.90;98.30;;;;;;6227091;23;20892;-85
2022/10/06 10:20:00;;;;;;;2.20;1.67;;;18.80;97.40;;;;;;6225497;23;21003;-85
2022/10/06 10:22:34;;;;;;;2.33;1.80;;;18.60;98.20;;;;;;6225153;23;20471;-85
2022/10/06 10:25:13;;;;;;;2.90;1.63;;;18.70;98.40;;;;;;6224296;23;20408;-85
2022/10/06 10:27:51;;;;;;;1.23;1.00;;;18.80;98.20;;;;;;6224339;23;20396;-85
2022/10/06 10:30:18;;;;;;;3.20;1.07;;;18.80;98.90;;;;;;6221779;23;20467;-84
2022/10/06 10:33:02;;;;;;;2.13;1.23;;;18.90;98.70;;;;;;6222557;23;20480;-85
2022/10/06 10:35:32;;;;;;;2.27;1.67;;;19.00;98.70;;;;;;6223128;23;20385;-84
2022/10/06 10:38:03;;;;;;;2.93;1.30;;;19.10;98.50;;;;;;6224156;23;20415;-85
2022/10/06 10:40:37;;;;;;;2.10;2.00;;;19.10;98.50;;;;;;6225265;23;20394;-85
2022/10/06 10:43:14;;;;;;;3.33;1.43;;;19.10;98.10;;;;;;6225113;23;20405;-85
2022/10/06 10:45:45;;;;;;;4.67;2.07;;;19.10;98.50;;;;;;6223855;23;20393;-84
2022/10/06 10:48:17;;;;;;;2.40;2.00;;;19.00;98.30;;;;;;6220873;23;20420;-84
2022/10/06 10:50:55;;;;;;;2.13;1.87;;;19.00;98.10;;;;;;6223290;23;20407;-85
2022/10/06 10:53:32;;;;;;;3.47;1.40;;;18.90;98.30;;;;;;6228098;23;20435;-85
2022/10/06 10:56:06;;;;;;;3.07;1.30;;;19.00;98.70;;;;;;6229154;23;20393;-86
2022/10/06 10:58:35;;;;;;;1.80;1.70;;;19.40;98.60;;;;;;6226293;23;20765;-85
2022/10/06 11:01:12;;;;;;;3.30;1.50;;;20.10;97.60;;;;;;6225130;23;20411;-82
2022/10/06 11:03:39;;;;;;;2.90;1.60;;;20.80;96.70;;;;;;6223495;23;20397;-82
2022/10/06 11:06:20;;;;;;;2.50;1.50;;;21.60;95.20;;;;;;6227469;23;20489;-82
2022/10/06 11:08:53;;;;;;;1.93;1.50;;;22.50;94.40;;;;;;6225084;23;20431;-82
2022/10/06 11:11:41;;;;;;;2.00;1.20;;;23.20;92.00;;;;;;6227654;23;20420;-82
2022/10/06 11:14:18;;;;;;;1.67;1.20;;;23.60;91.50;;;;;;6226445;23;20435;-83
2022/10/06 11:16:50;;;;;;;1.53;1.13;;;23.10;90.10;;;;;;6225813;23;20396;-83
2022/10/06 11:19:27;;;;;;;1.90;1.30;;;22.80;90.00;;;;;;6226661;23;20429;-83
2022/10/06 11:22:02;;;;;;;2.13;1.93;;;22.00;90.40;;;;;;6226189;23;20390;-82
2022/10/06 11:24:41;;;;;;;1.20;1.20;;;21.50;91.20;;;;;;6225904;23;20741;-82
2022/10/06 11:27:22;;;;;;;1.80;1.60;;;20.80;92.30;;;;;;6223616;23;20400;-82
2022/10/06 11:30:00;;;;;;;1.63;0.97;;;20.80;93.40;;;;;;6224721;23;20431;-82
2022/10/06 11:32:51;;;;;;;3.80;1.77;;;20.70;93.60;;;;;;6227091;23;20390;-83
2022/10/06 11:35:20;;;;;;;5.57;1.80;;;20.70;93.80;;;;;;6226936;23;20462;-83
2022/10/06 11:37:53;;;;;;;1.43;1.33;;;21.20;94.60;;;;;;6226161;23;20416;-83
2022/10/06 11:40:35;;;;;;;5.70;1.37;;;22.10;94.00;;;;;;6220420;22;20538;-83
2022/10/06 11:43:10;;;;;;;2.83;1.60;;;22.80;91.20;;;;;;6233675;23;20429;-85
2022/10/06 11:46:01;;;;;;;2.63;1.80;;;22.60;91.40;;;;;;6230062;23;20402;-86
2022/10/06 11:48:30;;;;;;;4.03;1.40;;;22.10;91.70;;;;;;6236729;23;20481;-87
2022/10/06 11:51:28;;;;;;;2.93;1.20;;;22.10;92.30;;;;;;6238125;23;20413;-85
2022/10/06 11:53:55;;;;;;;3.67;1.70;;;21.90;92.40;;;;;;6229259;23;20435;-86
2022/10/06 11:56:42;;;;;;;2.73;1.37;;;21.50;92.60;;;;;;6228098;23;20411;-86
2022/10/06 11:59:30;;;;;;;2.20;1.90;;;21.00;93.10;;;;;;6226085;23;20437;-85
2022/10/06 12:01:59;;;;;;;2.43;1.90;;;20.60;94.20;;;;;;6222035;23;20399;-84
2022/10/06 12:04:26;;;;;;;2.80;1.97;;;20.10;94.30;;;;;;6222615;23;20768;-84
2022/10/06 12:06:59;;;;;;;2.43;1.33;;;19.90;95.50;;;;;;6220509;23;20914;-82
2022/10/06 12:09:32;;;;;;;4.17;1.83;;;19.80;95.90;;;;;;6219751;23;20743;-83
2022/10/06 12:12:01;;;;;;;3.50;1.67;;;19.70;96.10;;;;;;6223496;23;20390;-85
2022/10/06 12:14:36;;;;;;;2.10;1.53;;;19.60;96.10;;;;;;6223710;23;20410;-84
2022/10/06 12:17:11;;;;;;;4.17;1.73;;;19.90;96.60;;;;;;6227036;23;20393;-84
2022/10/06 12:19:52;;;;;;;2.30;1.27;;;19.80;96.20;;;;;;6229750;23;20431;-85
2022/10/06 12:22:26;;;;;;;1.37;1.27;;;19.60;95.80;;;;;;6229824;23;20389;-84
2022/10/06 12:25:01;;;;;;;4.33;2.40;;;19.30;96.40;;;;;;6227217;23;20438;-84
2022/10/06 12:27:51;;;;;;;2.93;1.50;;;19.30;97.00;;;;;;6227209;23;20762;-85
2022/10/06 12:30:22;;;;;;;3.70;2.07;;;19.20;97.00;;;;;;6226691;23;20433;-85
2022/10/06 12:32:52;;;;;;;3.90;1.90;;;19.10;96.70;;;;;;6227506;23;20444;-85
2022/10/06 12:35:32;;;;;;;1.93;1.60;;;19.00;96.70;;;;;;6228400;23;20499;-85
2022/10/06 12:38:46;;;;;;;3.63;1.50;;;19.10;97.10;;;;;;6227620;23;20397;-86
2022/10/06 12:42:08;;;;;;;2.57;2.17;;;19.40;97.00;;;;;;6229289;23;20417;-85
2022/10/06 12:44:39;;;;;;;2.60;1.57;;;19.50;96.40;;;;;;6237584;23;20456;-85
2022/10/06 12:50:27;;;;;;;3.13;1.60;;;19.50;95.80;;;;;;6211685;23;20434;-85
2022/10/06 12:52:56;;;;;;;2.50;1.93;;;19.50;95.80;;;;;;6228138;23;20805;-85
2022/10/06 12:55:46;;;;;;;2.03;1.77;;;19.50;95.70;;;;;;6228933;23;20444;-86
2022/10/06 12:58:17;;;;;;;1.60;1.00;;;19.30;96.10;;;;;;6226502;23;20393;-85
2022/10/06 13:00:45;;;;;;;3.13;1.60;;;19.20;96.10;;;;;;6225890;23;20470;-85
2022/10/06 13:03:17;;;;;;;3.00;2.07;;;19.20;96.40;;;;;;6225811;23;20451;-85
2022/10/06 13:05:50;;;;;;;2.20;1.90;;;19.10;96.70;;;;;;6230228;23;20389;-85
2022/10/06 13:08:25;;;;;;;3.00;1.90;;;19.10;96.80;;;;;;6228021;23;20413;-85
2022/10/06 13:14:18;;;;;;;2.73;1.37;;;19.50;96.40;;;;;;6158448;23;20413;-85
2022/10/06 13:16:46;;;;;;;7.90;1.90;;;19.70;96.60;;;;;;6219329;23;20408;-85
2022/10/06 13:19:19;;;;;;;2.93;1.90;;;19.60;95.90;;;;;;6232019;23;20491;-86
2022/10/06 13:21:46;;;;;;;5.13;2.40;;;19.70;96.10;;;;;;6228255;23;20846;-85
2022/10/06 13:24:18;;;;;;;3.67;1.70;;;19.80;95.80;;;;;;6226512;23;20451;-85
2022/10/06 13:26:46;;;;;;;5.13;1.60;;;20.00;95.80;;;;;;6225905;23;20408;-84
2022/10/06 13:29:20;;;;;;;1.33;1.00;;;20.10;95.70;;;;;;6226019;23;20436;-85